sensor_id;sensor_type;location;lat;lon;timestamp;pressure;altitude;pressure_sealevel;temperature;humidity
69214;BME280;56325;47.030;18.518;2023-01-31T00:00:26;100262.47;;;4.64;69.50
69214;BME280;56325;47.030;18.518;2023-01-31T00:03:00;100265.69;;;4.59;69.48
69214;BME280;56325;47.030;18.518;2023-01-31T00:05:36;100262.19;;;4.58;69.57
69214;BME280;56325;47.030;18.518;2023-01-31T00:08:10;100256.03;;;4.54;69.71
69214;BME280;56325;47.030;18.518;2023-01-31T00:10:45;100266.94;;;4.54;69.87
69214;BME280;56325;47.030;18.518;2023-01-31T00:13:20;100274.69;;;4.56;69.73
69214;BME280;56325;47.030;18.518;2023-01-31T00:15:55;100268.47;;;4.55;70.00
69214;BME280;56325;47.030;18.518;2023-01-31T00:18:30;100257.69;;;4.48;70.23
69214;BME280;56325;47.030;18.518;2023-01-31T00:21:08;100263.16;;;4.48;70.06
69214;BME280;56325;47.030;18.518;2023-01-31T00:23:45;100268.66;;;4.45;70.27
69214;BME280;56325;47.030;18.518;2023-01-31T00:26:21;100273.41;;;4.41;70.40
69214;BME280;56325;47.030;18.518;2023-01-31T00:28:56;100276.25;;;4.34;70.67
69214;BME280;56325;47.030;18.518;2023-01-31T00:31:32;100283.88;;;4.42;70.47
69214;BME280;56325;47.030;18.518;2023-01-31T00:34:08;100293.22;;;4.41;70.15
69214;BME280;56325;47.030;18.518;2023-01-31T00:36:48;100296.66;;;4.45;69.95
69214;BME280;56325;47.030;18.518;2023-01-31T00:39:23;100305.25;;;4.44;70.34
69214;BME280;56325;47.030;18.518;2023-01-31T00:41:57;100303.75;;;4.39;70.28
69214;BME280;56325;47.030;18.518;2023-01-31T00:44:32;100313.16;;;4.35;70.41
69214;BME280;56325;47.030;18.518;2023-01-31T00:47:07;100309.62;;;4.38;70.08
69214;BME280;56325;47.030;18.518;2023-01-31T00:49:41;100310.81;;;4.37;70.01
69214;BME280;56325;47.030;18.518;2023-01-31T00:52:17;100316.91;;;4.44;70.04
69214;BME280;56325;47.030;18.518;2023-01-31T00:54:51;100308.44;;;4.39;69.96
69214;BME280;56325;47.030;18.518;2023-01-31T00:57:26;100312.63;;;4.43;69.68
69214;BME280;56325;47.030;18.518;2023-01-31T01:00:01;100304.47;;;4.43;69.75
69214;BME280;56325;47.030;18.518;2023-01-31T01:02:36;100299.84;;;4.40;69.89
69214;BME280;56325;47.030;18.518;2023-01-31T01:05:12;100304.59;;;4.36;70.17
69214;BME280;56325;47.030;18.518;2023-01-31T01:07:47;100303.91;;;4.32;70.08
69214;BME280;56325;47.030;18.518;2023-01-31T01:10:22;100308.22;;;4.30;70.37
69214;BME280;56325;47.030;18.518;2023-01-31T01:12:56;100294.47;;;4.37;70.21
69214;BME280;56325;47.030;18.518;2023-01-31T01:15:30;100291.84;;;4.33;70.20
69214;BME280;56325;47.030;18.518;2023-01-31T01:18:06;100290.72;;;4.31;70.69
69214;BME280;56325;47.030;18.518;2023-01-31T01:20:42;100281.19;;;4.19;71.08
69214;BME280;56325;47.030;18.518;2023-01-31T01:23:18;100284.19;;;4.24;70.93
69214;BME280;56325;47.030;18.518;2023-01-31T01:25:52;100291.75;;;4.13;71.06
69214;BME280;56325;47.030;18.518;2023-01-31T01:28:26;100284.37;;;4.14;70.98
69214;BME280;56325;47.030;18.518;2023-01-31T01:31:04;100286.72;;;4.12;71.02
69214;BME280;56325;47.030;18.518;2023-01-31T01:33:39;100284.44;;;4.10;71.28
69214;BME280;56325;47.030;18.518;2023-01-31T01:36:16;100277.37;;;4.13;71.12
69214;BME280;56325;47.030;18.518;2023-01-31T01:38:55;100281.59;;;4.17;70.80
69214;BME280;56325;47.030;18.518;2023-01-31T01:41:31;100280.81;;;4.17;70.71
69214;BME280;56325;47.030;18.518;2023-01-31T01:47:17;100285.91;;;4.15;70.83
69214;BME280;56325;47.030;18.518;2023-01-31T01:49:55;100290.16;;;4.16;70.90
69214;BME280;56325;47.030;18.518;2023-01-31T01:52:33;100281.28;;;4.12;70.96
69214;BME280;56325;47.030;18.518;2023-01-31T01:55:15;100277.03;;;4.11;71.22
69214;BME280;56325;47.030;18.518;2023-01-31T01:57:55;100283.66;;;4.10;71.05
69214;BME280;56325;47.030;18.518;2023-01-31T02:00:32;100294.19;;;4.08;71.21
69214;BME280;56325;47.030;18.518;2023-01-31T02:03:08;100299.75;;;4.01;71.69
69214;BME280;56325;47.030;18.518;2023-01-31T02:05:47;100298.56;;;4.02;71.51
69214;BME280;56325;47.030;18.518;2023-01-31T02:08:24;100299.38;;;3.99;71.62
69214;BME280;56325;47.030;18.518;2023-01-31T02:11:03;100296.28;;;3.97;71.63
69214;BME280;56325;47.030;18.518;2023-01-31T02:13:45;100302.75;;;4.06;71.21
69214;BME280;56325;47.030;18.518;2023-01-31T02:16:19;100291.63;;;3.97;71.51
69214;BME280;56325;47.030;18.518;2023-01-31T02:18:55;100289.62;;;4.01;71.51
69214;BME280;56325;47.030;18.518;2023-01-31T02:22:00;100298.59;;;3.98;71.69
69214;BME280;56325;47.030;18.518;2023-01-31T02:28:27;100292.03;;;3.95;71.57
69214;BME280;56325;47.030;18.518;2023-01-31T02:31:40;100309.59;;;3.91;71.62
69214;BME280;56325;47.030;18.518;2023-01-31T02:34:26;100309.59;;;3.91;71.33
69214;BME280;56325;47.030;18.518;2023-01-31T02:37:14;100309.84;;;4.00;70.53
69214;BME280;56325;47.030;18.518;2023-01-31T02:40:00;100316.84;;;4.01;70.66
69214;BME280;56325;47.030;18.518;2023-01-31T02:42:46;100326.19;;;4.00;70.73
69214;BME280;56325;47.030;18.518;2023-01-31T02:45:28;100328.94;;;3.97;70.92
69214;BME280;56325;47.030;18.518;2023-01-31T02:48:16;100322.00;;;3.92;71.22
69214;BME280;56325;47.030;18.518;2023-01-31T02:51:01;100325.09;;;3.94;71.29
69214;BME280;56325;47.030;18.518;2023-01-31T02:53:43;100332.94;;;3.88;71.52
69214;BME280;56325;47.030;18.518;2023-01-31T02:56:20;100336.50;;;3.85;71.92
69214;BME280;56325;47.030;18.518;2023-01-31T02:59:01;100336.44;;;3.89;72.08
69214;BME280;56325;47.030;18.518;2023-01-31T03:01:40;100332.53;;;3.90;72.16
69214;BME280;56325;47.030;18.518;2023-01-31T03:04:16;100346.25;;;3.83;72.74
69214;BME280;56325;47.030;18.518;2023-01-31T03:06:59;100349.63;;;3.90;72.45
69214;BME280;56325;47.030;18.518;2023-01-31T03:09:39;100360.25;;;3.81;72.97
69214;BME280;56325;47.030;18.518;2023-01-31T03:12:31;100369.59;;;3.80;73.30
69214;BME280;56325;47.030;18.518;2023-01-31T03:15:23;100372.00;;;3.75;73.69
69214;BME280;56325;47.030;18.518;2023-01-31T03:18:22;100368.59;;;3.67;73.96
69214;BME280;56325;47.030;18.518;2023-01-31T03:21:02;100381.38;;;3.70;74.10
69214;BME280;56325;47.030;18.518;2023-01-31T03:23:44;100379.91;;;3.62;74.48
69214;BME280;56325;47.030;18.518;2023-01-31T03:26:20;100381.75;;;3.72;74.12
69214;BME280;56325;47.030;18.518;2023-01-31T03:28:56;100385.28;;;3.69;74.44
69214;BME280;56325;47.030;18.518;2023-01-31T03:31:36;100378.66;;;3.70;74.46
69214;BME280;56325;47.030;18.518;2023-01-31T03:34:13;100364.66;;;3.72;74.56
69214;BME280;56325;47.030;18.518;2023-01-31T03:36:53;100374.41;;;3.69;74.79
69214;BME280;56325;47.030;18.518;2023-01-31T03:39:37;100388.81;;;3.66;75.01
69214;BME280;56325;47.030;18.518;2023-01-31T03:42:17;100390.44;;;3.60;75.36
69214;BME280;56325;47.030;18.518;2023-01-31T03:44:55;100406.37;;;3.58;75.63
69214;BME280;56325;47.030;18.518;2023-01-31T03:47:34;100406.09;;;3.49;76.06
69214;BME280;56325;47.030;18.518;2023-01-31T03:50:14;100410.00;;;3.48;76.26
69214;BME280;56325;47.030;18.518;2023-01-31T03:52:54;100419.66;;;3.52;76.32
69214;BME280;56325;47.030;18.518;2023-01-31T03:55:34;100434.91;;;3.46;76.65
69214;BME280;56325;47.030;18.518;2023-01-31T03:58:12;100438.09;;;3.38;77.08
69214;BME280;56325;47.030;18.518;2023-01-31T04:00:49;100418.47;;;3.53;76.66
69214;BME280;56325;47.030;18.518;2023-01-31T04:03:28;100418.06;;;3.55;76.80
69214;BME280;56325;47.030;18.518;2023-01-31T04:06:05;100422.03;;;3.47;77.40
69214;BME280;56325;47.030;18.518;2023-01-31T04:08:42;100415.81;;;3.50;77.60
69214;BME280;56325;47.030;18.518;2023-01-31T04:11:22;100432.81;;;3.57;77.66
69214;BME280;56325;47.030;18.518;2023-01-31T04:13:57;100425.12;;;3.49;78.20
69214;BME280;56325;47.030;18.518;2023-01-31T04:16:32;100419.06;;;3.38;78.53
69214;BME280;56325;47.030;18.518;2023-01-31T04:19:06;100417.16;;;3.35;78.67
69214;BME280;56325;47.030;18.518;2023-01-31T04:21:41;100425.72;;;3.33;78.69
69214;BME280;56325;47.030;18.518;2023-01-31T04:24:15;100412.25;;;3.22;80.33
69214;BME280;56325;47.030;18.518;2023-01-31T04:26:51;100408.84;;;3.11;81.06
69214;BME280;56325;47.030;18.518;2023-01-31T04:29:25;100406.28;;;2.97;82.02
69214;BME280;56325;47.030;18.518;2023-01-31T04:32:00;100413.25;;;2.98;81.75
69214;BME280;56325;47.030;18.518;2023-01-31T04:34:34;100419.09;;;2.96;82.16
69214;BME280;56325;47.030;18.518;2023-01-31T04:37:08;100423.78;;;2.92;83.03
69214;BME280;56325;47.030;18.518;2023-01-31T04:39:43;100421.41;;;3.36;86.77
69214;BME280;56325;47.030;18.518;2023-01-31T04:42:19;100437.94;;;3.14;83.21
69214;BME280;56325;47.030;18.518;2023-01-31T04:44:53;100434.47;;;3.10;82.92
69214;BME280;56325;47.030;18.518;2023-01-31T04:47:28;100429.63;;;2.91;83.83
69214;BME280;56325;47.030;18.518;2023-01-31T04:50:03;100430.00;;;2.89;84.42
69214;BME280;56325;47.030;18.518;2023-01-31T04:52:37;100427.19;;;3.00;84.33
69214;BME280;56325;47.030;18.518;2023-01-31T04:55:11;100435.09;;;2.84;85.09
69214;BME280;56325;47.030;18.518;2023-01-31T04:57:47;100417.31;;;2.76;85.66
69214;BME280;56325;47.030;18.518;2023-01-31T05:00:22;100423.63;;;2.62;86.31
69214;BME280;56325;47.030;18.518;2023-01-31T05:02:56;100429.56;;;2.53;86.83
69214;BME280;56325;47.030;18.518;2023-01-31T05:05:31;100419.03;;;2.59;86.63
69214;BME280;56325;47.030;18.518;2023-01-31T05:08:08;100429.38;;;2.71;85.33
69214;BME280;56325;47.030;18.518;2023-01-31T05:10:43;100432.16;;;2.64;85.98
69214;BME280;56325;47.030;18.518;2023-01-31T05:13:18;100430.31;;;2.54;86.57
69214;BME280;56325;47.030;18.518;2023-01-31T05:15:53;100430.37;;;2.47;86.86
69214;BME280;56325;47.030;18.518;2023-01-31T05:18:28;100442.00;;;2.47;86.79
69214;BME280;56325;47.030;18.518;2023-01-31T05:21:03;100441.63;;;2.45;86.65
69214;BME280;56325;47.030;18.518;2023-01-31T05:23:41;100447.78;;;2.53;85.70
69214;BME280;56325;47.030;18.518;2023-01-31T05:26:16;100451.88;;;2.72;84.23
69214;BME280;56325;47.030;18.518;2023-01-31T05:28:51;100456.81;;;2.87;82.80
69214;BME280;56325;47.030;18.518;2023-01-31T05:31:26;100462.09;;;3.05;81.58
69214;BME280;56325;47.030;18.518;2023-01-31T05:34:01;100466.28;;;3.13;80.98
69214;BME280;56325;47.030;18.518;2023-01-31T05:36:36;100465.56;;;3.06;81.29
69214;BME280;56325;47.030;18.518;2023-01-31T05:39:10;100469.47;;;3.05;81.26
69214;BME280;56325;47.030;18.518;2023-01-31T05:41:45;100468.66;;;3.08;80.69
69214;BME280;56325;47.030;18.518;2023-01-31T05:44:21;100474.81;;;3.15;80.19
69214;BME280;56325;47.030;18.518;2023-01-31T05:46:58;100483.69;;;3.19;79.72
69214;BME280;56325;47.030;18.518;2023-01-31T05:49:34;100487.97;;;3.20;79.64
69214;BME280;56325;47.030;18.518;2023-01-31T05:52:08;100475.19;;;3.17;79.58
69214;BME280;56325;47.030;18.518;2023-01-31T05:54:43;100485.47;;;4.05;89.31
69214;BME280;56325;47.030;18.518;2023-01-31T05:57:17;100496.72;;;3.73;78.31
69214;BME280;56325;47.030;18.518;2023-01-31T05:59:53;100499.72;;;3.48;78.80
69214;BME280;56325;47.030;18.518;2023-01-31T06:02:27;100506.28;;;3.50;78.68
69214;BME280;56325;47.030;18.518;2023-01-31T06:05:03;100514.56;;;3.40;78.64
69214;BME280;56325;47.030;18.518;2023-01-31T06:07:38;100522.72;;;3.40;78.86
69214;BME280;56325;47.030;18.518;2023-01-31T07:09:56;100587.34;;;3.62;78.38
69214;BME280;56325;47.030;18.518;2023-01-31T07:12:31;100580.69;;;3.71;78.08
69214;BME280;56325;47.030;18.518;2023-01-31T07:15:07;100597.72;;;3.75;78.08
69214;BME280;56325;47.030;18.518;2023-01-31T07:17:41;100592.22;;;3.82;78.12
69214;BME280;56325;47.030;18.518;2023-01-31T07:20:16;100586.75;;;3.85;78.18
69214;BME280;56325;47.030;18.518;2023-01-31T07:22:53;100589.84;;;3.87;77.64
69214;BME280;56325;47.030;18.518;2023-01-31T07:25:30;100584.62;;;4.04;77.34
69214;BME280;56325;47.030;18.518;2023-01-31T07:28:06;100596.56;;;4.13;77.13
69214;BME280;56325;47.030;18.518;2023-01-31T07:30:40;100608.50;;;4.23;76.87
69214;BME280;56325;47.030;18.518;2023-01-31T07:33:16;100590.97;;;4.27;76.27
69214;BME280;56325;47.030;18.518;2023-01-31T07:35:52;100604.75;;;4.44;77.93
69214;BME280;56325;47.030;18.518;2023-01-31T07:38:27;100613.56;;;4.24;74.79
69214;BME280;56325;47.030;18.518;2023-01-31T07:41:03;100620.66;;;4.15;74.59
69214;BME280;56325;47.030;18.518;2023-01-31T07:43:38;100623.81;;;4.10;75.55
69214;BME280;56325;47.030;18.518;2023-01-31T07:46:13;100627.88;;;5.20;83.22
69214;BME280;56325;47.030;18.518;2023-01-31T07:48:47;100642.06;;;4.47;74.79
69214;BME280;56325;47.030;18.518;2023-01-31T07:51:21;100642.81;;;4.17;74.51
69214;BME280;56325;47.030;18.518;2023-01-31T07:53:56;100638.69;;;4.02;74.31
69214;BME280;56325;47.030;18.518;2023-01-31T07:56:32;100649.25;;;3.92;75.10
69214;BME280;56325;47.030;18.518;2023-01-31T07:59:07;100655.94;;;3.84;75.58
69214;BME280;56325;47.030;18.518;2023-01-31T08:01:41;100666.78;;;3.88;76.13
69214;BME280;56325;47.030;18.518;2023-01-31T08:04:34;100664.41;;;3.93;75.78
69214;BME280;56325;47.030;18.518;2023-01-31T08:07:08;100659.66;;;4.01;75.09
69214;BME280;56325;47.030;18.518;2023-01-31T08:09:42;100666.69;;;3.99;74.28
69214;BME280;56325;47.030;18.518;2023-01-31T08:12:20;100670.59;;;3.98;75.17
69214;BME280;56325;47.030;18.518;2023-01-31T08:14:55;100675.28;;;3.93;74.81
69214;BME280;56325;47.030;18.518;2023-01-31T08:17:31;100678.78;;;3.94;75.72
69214;BME280;56325;47.030;18.518;2023-01-31T08:20:07;100669.06;;;3.93;76.07
69214;BME280;56325;47.030;18.518;2023-01-31T08:22:41;100672.69;;;3.79;77.65
69214;BME280;56325;47.030;18.518;2023-01-31T08:25:16;100672.34;;;3.74;79.04
69214;BME280;56325;47.030;18.518;2023-01-31T08:27:54;100680.00;;;3.89;79.01
69214;BME280;56325;47.030;18.518;2023-01-31T08:30:30;100677.56;;;4.36;86.97
69214;BME280;56325;47.030;18.518;2023-01-31T08:33:04;100680.59;;;5.10;81.14
69214;BME280;56325;47.030;18.518;2023-01-31T08:35:39;100684.13;;;4.42;78.81
69214;BME280;56325;47.030;18.518;2023-01-31T08:38:14;100685.47;;;4.27;78.59
69214;BME280;56325;47.030;18.518;2023-01-31T08:40:49;100694.19;;;4.45;77.97
69214;BME280;56325;47.030;18.518;2023-01-31T08:43:24;100696.59;;;4.40;75.36
69214;BME280;56325;47.030;18.518;2023-01-31T08:45:59;100691.00;;;4.54;74.83
69214;BME280;56325;47.030;18.518;2023-01-31T08:48:34;100687.06;;;4.58;74.01
69214;BME280;56325;47.030;18.518;2023-01-31T08:51:10;100700.59;;;4.66;73.25
69214;BME280;56325;47.030;18.518;2023-01-31T08:53:45;100683.16;;;4.59;72.85
69214;BME280;56325;47.030;18.518;2023-01-31T08:56:20;100695.09;;;4.69;72.54
69214;BME280;56325;47.030;18.518;2023-01-31T08:58:59;100692.66;;;4.78;71.91
69214;BME280;56325;47.030;18.518;2023-01-31T09:01:33;100698.72;;;4.93;71.45
69214;BME280;56325;47.030;18.518;2023-01-31T09:04:08;100703.72;;;4.98;71.05
69214;BME280;56325;47.030;18.518;2023-01-31T09:06:44;100712.19;;;5.04;70.96
69214;BME280;56325;47.030;18.518;2023-01-31T09:09:18;100711.34;;;5.10;70.55
69214;BME280;56325;47.030;18.518;2023-01-31T09:11:53;100704.19;;;5.20;69.77
69214;BME280;56325;47.030;18.518;2023-01-31T09:14:29;100671.41;;;5.23;69.40
69214;BME280;56325;47.030;18.518;2023-01-31T09:17:04;100715.19;;;5.40;69.14
69214;BME280;56325;47.030;18.518;2023-01-31T09:19:40;100713.97;;;5.44;68.62
69214;BME280;56325;47.030;18.518;2023-01-31T09:22:14;100729.84;;;5.22;68.48
69214;BME280;56325;47.030;18.518;2023-01-31T09:24:49;100706.88;;;5.50;68.37
69214;BME280;56325;47.030;18.518;2023-01-31T09:27:24;100708.56;;;5.41;68.00
69214;BME280;56325;47.030;18.518;2023-01-31T09:29:59;100705.06;;;5.40;67.32
69214;BME280;56325;47.030;18.518;2023-01-31T09:32:35;100691.97;;;5.55;66.96
69214;BME280;56325;47.030;18.518;2023-01-31T09:35:10;100702.69;;;5.69;66.97
69214;BME280;56325;47.030;18.518;2023-01-31T09:37:46;100714.13;;;5.60;66.20
69214;BME280;56325;47.030;18.518;2023-01-31T09:40:21;100704.50;;;5.52;65.96
69214;BME280;56325;47.030;18.518;2023-01-31T09:43:01;100714.84;;;5.65;65.88
69214;BME280;56325;47.030;18.518;2023-01-31T09:45:39;100694.75;;;5.78;65.87
69214;BME280;56325;47.030;18.518;2023-01-31T09:48:18;100703.16;;;5.87;65.71
69214;BME280;56325;47.030;18.518;2023-01-31T09:50:57;100699.00;;;6.06;65.49
69214;BME280;56325;47.030;18.518;2023-01-31T09:53:34;100699.59;;;5.94;66.10
69214;BME280;56325;47.030;18.518;2023-01-31T09:56:20;100694.03;;;5.74;66.32
69214;BME280;56325;47.030;18.518;2023-01-31T09:59:06;100703.09;;;5.95;66.36
69214;BME280;56325;47.030;18.518;2023-01-31T10:01:54;100704.78;;;5.85;65.10
69214;BME280;56325;47.030;18.518;2023-01-31T10:04:54;100703.75;;;6.02;65.54
69214;BME280;56325;47.030;18.518;2023-01-31T10:07:33;100713.69;;;6.12;65.48
69214;BME280;56325;47.030;18.518;2023-01-31T10:10:16;100705.69;;;6.02;65.55
69214;BME280;56325;47.030;18.518;2023-01-31T10:12:55;100717.75;;;6.24;65.59
69214;BME280;56325;47.030;18.518;2023-01-31T10:15:37;100718.84;;;6.07;66.96
69214;BME280;56325;47.030;18.518;2023-01-31T10:18:21;100723.62;;;6.03;66.54
69214;BME280;56325;47.030;18.518;2023-01-31T10:21:04;100730.84;;;5.89;66.23
69214;BME280;56325;47.030;18.518;2023-01-31T10:23:43;100711.78;;;5.86;66.25
69214;BME280;56325;47.030;18.518;2023-01-31T10:26:23;100724.09;;;5.98;66.84
69214;BME280;56325;47.030;18.518;2023-01-31T10:29:03;100711.13;;;6.25;65.60
69214;BME280;56325;47.030;18.518;2023-01-31T10:31:42;100714.84;;;6.35;65.06
69214;BME280;56325;47.030;18.518;2023-01-31T10:34:25;100706.09;;;6.43;64.75
69214;BME280;56325;47.030;18.518;2023-01-31T10:37:05;100703.72;;;6.45;63.68
69214;BME280;56325;47.030;18.518;2023-01-31T10:39:43;100723.03;;;6.35;63.05
69214;BME280;56325;47.030;18.518;2023-01-31T10:42:23;100713.88;;;6.45;62.38
69214;BME280;56325;47.030;18.518;2023-01-31T10:45:11;100715.00;;;6.47;62.33
69214;BME280;56325;47.030;18.518;2023-01-31T10:47:50;100708.63;;;6.34;62.62
69214;BME280;56325;47.030;18.518;2023-01-31T10:50:30;100705.06;;;6.57;61.55
69214;BME280;56325;47.030;18.518;2023-01-31T10:53:18;100716.75;;;6.57;60.41
69214;BME280;56325;47.030;18.518;2023-01-31T10:56:02;100688.41;;;6.08;60.52
69214;BME280;56325;47.030;18.518;2023-01-31T10:58:38;100698.53;;;6.51;60.87
69214;BME280;56325;47.030;18.518;2023-01-31T11:01:12;100710.09;;;6.39;60.82
69214;BME280;56325;47.030;18.518;2023-01-31T11:03:49;100710.94;;;6.55;59.13
69214;BME280;56325;47.030;18.518;2023-01-31T11:06:25;100709.84;;;6.73;60.14
69214;BME280;56325;47.030;18.518;2023-01-31T11:09:00;100714.91;;;6.31;63.45
69214;BME280;56325;47.030;18.518;2023-01-31T11:11:53;100717.09;;;6.40;62.20
69214;BME280;56325;47.030;18.518;2023-01-31T11:14:28;100711.00;;;6.32;63.47
69214;BME280;56325;47.030;18.518;2023-01-31T11:17:06;100701.47;;;6.40;63.31
69214;BME280;56325;47.030;18.518;2023-01-31T11:19:44;100702.44;;;6.30;61.69
69214;BME280;56325;47.030;18.518;2023-01-31T11:22:25;100697.94;;;6.20;61.29
69214;BME280;56325;47.030;18.518;2023-01-31T11:25:03;100700.50;;;6.07;61.98
69214;BME280;56325;47.030;18.518;2023-01-31T11:27:39;100716.81;;;6.34;62.95
69214;BME280;56325;47.030;18.518;2023-01-31T11:30:21;100703.97;;;6.31;62.43
69214;BME280;56325;47.030;18.518;2023-01-31T11:32:58;100728.94;;;6.10;64.22
69214;BME280;56325;47.030;18.518;2023-01-31T11:35:33;100732.84;;;5.85;64.79
69214;BME280;56325;47.030;18.518;2023-01-31T11:38:21;100738.63;;;5.64;65.03
69214;BME280;56325;47.030;18.518;2023-01-31T11:40:56;100743.66;;;5.39;66.18
69214;BME280;56325;47.030;18.518;2023-01-31T11:43:30;100739.06;;;5.32;67.90
69214;BME280;56325;47.030;18.518;2023-01-31T11:46:07;100742.56;;;5.33;66.82
69214;BME280;56325;47.030;18.518;2023-01-31T11:48:42;100753.09;;;5.31;66.74
69214;BME280;56325;47.030;18.518;2023-01-31T11:51:25;100746.16;;;5.26;66.59
69214;BME280;56325;47.030;18.518;2023-01-31T11:54:04;100739.94;;;5.25;65.35
69214;BME280;56325;47.030;18.518;2023-01-31T11:56:39;100722.19;;;5.14;65.02
69214;BME280;56325;47.030;18.518;2023-01-31T11:59:17;100738.16;;;5.15;65.67
69214;BME280;56325;47.030;18.518;2023-01-31T12:01:57;100720.97;;;4.88;68.07
69214;BME280;56325;47.030;18.518;2023-01-31T12:04:39;100715.22;;;4.79;70.46
69214;BME280;56325;47.030;18.518;2023-01-31T12:07:25;100724.06;;;4.90;73.21
69214;BME280;56325;47.030;18.518;2023-01-31T12:10:04;100716.19;;;4.96;73.74
69214;BME280;56325;47.030;18.518;2023-01-31T12:12:58;100720.50;;;4.93;70.51
69214;BME280;56325;47.030;18.518;2023-01-31T12:15:53;100727.06;;;4.99;71.04
69214;BME280;56325;47.030;18.518;2023-01-31T12:18:49;100726.62;;;5.31;70.89
69214;BME280;56325;47.030;18.518;2023-01-31T12:21:41;100738.19;;;5.39;70.82
69214;BME280;56325;47.030;18.518;2023-01-31T12:24:30;100738.37;;;5.24;70.73
69214;BME280;56325;47.030;18.518;2023-01-31T12:27:19;100741.03;;;5.32;71.19
69214;BME280;56325;47.030;18.518;2023-01-31T12:30:20;100751.81;;;5.12;70.77
69214;BME280;56325;47.030;18.518;2023-01-31T12:33:17;100744.12;;;5.03;71.36
69214;BME280;56325;47.030;18.518;2023-01-31T12:36:10;100739.06;;;5.86;79.60
69214;BME280;56325;47.030;18.518;2023-01-31T12:38:57;100743.59;;;5.69;78.20
69214;BME280;56325;47.030;18.518;2023-01-31T12:41:38;100766.00;;;5.57;71.04
69214;BME280;56325;47.030;18.518;2023-01-31T12:44:30;100761.22;;;5.07;72.51
69214;BME280;56325;47.030;18.518;2023-01-31T12:47:29;100756.59;;;5.04;73.44
69214;BME280;56325;47.030;18.518;2023-01-31T12:50:21;100766.72;;;5.04;74.25
69214;BME280;56325;47.030;18.518;2023-01-31T12:53:29;100758.16;;;5.02;74.68
69214;BME280;56325;47.030;18.518;2023-01-31T12:56:17;100758.22;;;5.55;72.68
69214;BME280;56325;47.030;18.518;2023-01-31T12:59:01;100757.66;;;6.41;69.97
69214;BME280;56325;47.030;18.518;2023-01-31T13:01:55;100752.16;;;6.65;68.76
69214;BME280;56325;47.030;18.518;2023-01-31T13:04:36;100762.25;;;6.87;68.23
69214;BME280;56325;47.030;18.518;2023-01-31T13:07:18;100767.56;;;6.55;68.80
69214;BME280;56325;47.030;18.518;2023-01-31T13:09:58;100748.00;;;6.96;67.50
69214;BME280;56325;47.030;18.518;2023-01-31T13:12:35;100748.84;;;7.13;67.30
69214;BME280;56325;47.030;18.518;2023-01-31T13:15:15;100753.19;;;6.51;69.62
69214;BME280;56325;47.030;18.518;2023-01-31T13:17:56;100757.78;;;6.11;70.64
69214;BME280;56325;47.030;18.518;2023-01-31T13:20:36;100759.41;;;5.81;71.40
69214;BME280;56325;47.030;18.518;2023-01-31T13:23:18;100773.72;;;5.62;71.62
69214;BME280;56325;47.030;18.518;2023-01-31T13:25:58;100777.47;;;5.45;72.87
69214;BME280;56325;47.030;18.518;2023-01-31T13:28:42;100786.56;;;5.35;72.88
69214;BME280;56325;47.030;18.518;2023-01-31T13:31:20;100792.06;;;5.31;74.05
69214;BME280;56325;47.030;18.518;2023-01-31T13:34:10;100786.69;;;5.24;74.71
69214;BME280;56325;47.030;18.518;2023-01-31T13:36:48;100790.38;;;5.10;75.21
69214;BME280;56325;47.030;18.518;2023-01-31T13:39:27;100783.25;;;5.20;74.25
69214;BME280;56325;47.030;18.518;2023-01-31T13:42:04;100778.22;;;5.18;73.99
69214;BME280;56325;47.030;18.518;2023-01-31T13:44:41;100773.75;;;5.01;74.46
69214;BME280;56325;47.030;18.518;2023-01-31T13:47:20;100774.16;;;5.00;75.04
69214;BME280;56325;47.030;18.518;2023-01-31T13:50:01;100774.06;;;5.07;74.33
69214;BME280;56325;47.030;18.518;2023-01-31T13:52:46;100775.16;;;5.13;74.72
69214;BME280;56325;47.030;18.518;2023-01-31T13:55:28;100765.91;;;5.07;74.37
69214;BME280;56325;47.030;18.518;2023-01-31T13:58:05;100761.44;;;4.89;75.25
69214;BME280;56325;47.030;18.518;2023-01-31T14:00:42;100762.53;;;4.96;74.96
69214;BME280;56325;47.030;18.518;2023-01-31T14:03:19;100763.09;;;4.80;76.07
69214;BME280;56325;47.030;18.518;2023-01-31T14:05:59;100772.28;;;4.93;76.07
69214;BME280;56325;47.030;18.518;2023-01-31T14:08:38;100771.63;;;4.82;76.12
69214;BME280;56325;47.030;18.518;2023-01-31T14:11:32;100769.34;;;4.77;76.75
69214;BME280;56325;47.030;18.518;2023-01-31T14:14:18;100777.81;;;5.47;82.09
69214;BME280;56325;47.030;18.518;2023-01-31T14:16:53;100775.00;;;6.31;79.69
69214;BME280;56325;47.030;18.518;2023-01-31T14:19:59;100772.69;;;5.79;74.73
69214;BME280;56325;47.030;18.518;2023-01-31T14:22:36;100780.00;;;5.59;74.93
69214;BME280;56325;47.030;18.518;2023-01-31T14:25:14;100781.50;;;5.64;75.33
69214;BME280;56325;47.030;18.518;2023-01-31T14:28:01;100783.66;;;5.49;75.78
69214;BME280;56325;47.030;18.518;2023-01-31T14:30:40;100791.06;;;5.48;75.06
69214;BME280;56325;47.030;18.518;2023-01-31T14:33:26;100791.19;;;5.38;75.18
69214;BME280;56325;47.030;18.518;2023-01-31T14:36:30;100795.81;;;5.41;75.48
69214;BME280;56325;47.030;18.518;2023-01-31T14:39:26;100801.25;;;5.44;75.05
69214;BME280;56325;47.030;18.518;2023-01-31T14:45:27;100799.78;;;5.36;75.32
69214;BME280;56325;47.030;18.518;2023-01-31T14:48:14;100792.91;;;5.24;75.86
69214;BME280;56325;47.030;18.518;2023-01-31T14:51:07;100794.00;;;5.00;76.25
69214;BME280;56325;47.030;18.518;2023-01-31T14:54:03;100798.19;;;5.08;76.07
69214;BME280;56325;47.030;18.518;2023-01-31T14:57:10;100788.16;;;5.02;75.75
69214;BME280;56325;47.030;18.518;2023-01-31T14:59:53;100788.56;;;5.00;75.87
69214;BME280;56325;47.030;18.518;2023-01-31T15:03:16;100776.59;;;5.51;75.08